createdAt,value
2022-10-31T00:00:49.217Z,58.21
2022-10-31T00:03:17.409Z,58.72
2022-10-31T00:05:49.116Z,58.58
2022-10-31T00:08:17.159Z,58.98
2022-10-31T00:10:45.255Z,59.29
2022-10-31T00:13:13.803Z,59.43
2022-10-31T00:15:41.982Z,59.55
2022-10-31T00:18:10.440Z,59.87
2022-10-31T00:20:37.325Z,59.62
2022-10-31T00:23:05.511Z,59.87
2022-10-31T00:25:37.161Z,59.85
2022-10-31T00:28:05.286Z,59.98
2022-10-31T00:30:32.119Z,59.77
2022-10-31T00:32:59.456Z,59.78
2022-10-31T00:35:26.701Z,59.82
2022-10-31T00:37:53.837Z,59.90
2022-10-31T00:40:20.519Z,59.97
2022-10-31T00:42:47.142Z,60.25
2022-10-31T00:45:14.130Z,60.70
2022-10-31T00:47:40.705Z,60.96
2022-10-31T00:50:08.379Z,60.30
2022-10-31T00:52:35.228Z,60.23
2022-10-31T00:55:01.947Z,60.51
2022-10-31T00:57:28.652Z,60.47
2022-10-31T00:59:55.586Z,60.69
2022-10-31T01:02:22.554Z,60.87
2022-10-31T01:04:49.324Z,60.53
2022-10-31T01:07:16.009Z,60.78
2022-10-31T01:09:42.646Z,60.92
2022-10-31T01:12:09.741Z,60.57
2022-10-31T01:14:36.277Z,61.24
2022-10-31T01:17:02.971Z,61.35
2022-10-31T01:19:29.900Z,61.58
2022-10-31T01:21:56.806Z,61.96
2022-10-31T01:24:23.672Z,62.32
2022-10-31T01:26:50.456Z,62.60
2022-10-31T01:29:17.179Z,62.45
2022-10-31T01:31:43.805Z,62.16
2022-10-31T01:34:15.633Z,62.03
2022-10-31T01:36:43.034Z,61.96
2022-10-31T01:39:15.573Z,62.16
2022-10-31T01:41:48.294Z,62.64
2022-10-31T01:44:14.984Z,62.99
2022-10-31T01:46:53.890Z,62.89
2022-10-31T01:49:29.975Z,62.82
2022-10-31T01:52:12.742Z,62.80
2022-10-31T01:54:43.053Z,62.92
2022-10-31T01:57:13.903Z,63.38
2022-10-31T01:59:46.033Z,63.38
2022-10-31T02:02:14.096Z,63.20
2022-10-31T02:04:42.110Z,63.92
2022-10-31T02:07:13.457Z,64.17
2022-10-31T02:09:41.789Z,64.43
2022-10-31T02:12:11.427Z,64.80
2022-10-31T02:14:38.775Z,64.99
2022-10-31T02:17:05.402Z,64.74
2022-10-31T02:19:46.328Z,64.95
2022-10-31T02:22:25.142Z,64.76
2022-10-31T02:25:14.722Z,64.87
2022-10-31T02:27:56.310Z,65.47
2022-10-31T02:30:25.916Z,65.52
2022-10-31T02:33:11.878Z,65.69
2022-10-31T02:35:47.339Z,65.45
2022-10-31T02:38:20.046Z,65.33
2022-10-31T02:41:25.373Z,64.77
2022-10-31T02:44:38.547Z,63.81
2022-10-31T02:47:09.767Z,64.69
2022-10-31T02:50:01.960Z,65.46
2022-10-31T02:52:31.073Z,65.91
2022-10-31T02:54:58.577Z,66.68
2022-10-31T02:57:35.740Z,67.81
2022-10-31T03:00:07.579Z,67.93
2022-10-31T03:02:52.547Z,68.07
2022-10-31T03:05:38.109Z,68.03
2022-10-31T03:08:12.357Z,67.83
2022-10-31T03:10:47.955Z,68.57
2022-10-31T03:13:59.137Z,69.16
2022-10-31T03:16:49.838Z,69.28
2022-10-31T03:19:32.822Z,70.55
2022-10-31T03:22:06.724Z,71.01
2022-10-31T03:24:38.209Z,71.29
2022-10-31T03:27:07.962Z,72.02
2022-10-31T03:29:37.502Z,72.03
2022-10-31T03:32:30.363Z,73.00
2022-10-31T03:35:00.770Z,73.62
2022-10-31T03:37:30.709Z,74.38
2022-10-31T03:40:00.832Z,75.29
2022-10-31T03:42:51.487Z,76.32
2022-10-31T03:45:31.913Z,77.12
2022-10-31T03:48:02.109Z,77.73
2022-10-31T03:50:39.741Z,78.19
2022-10-31T03:53:17.308Z,79.49
2022-10-31T03:55:53.942Z,80.38
2022-10-31T03:58:26.664Z,81.42
2022-10-31T04:00:57.287Z,82.39
2022-10-31T04:03:28.216Z,83.82
2022-10-31T04:05:58.462Z,85.58
2022-10-31T04:08:30.754Z,87.35
2022-10-31T04:11:00.445Z,89.47
2022-10-31T04:13:30.618Z,90.51
2022-10-31T04:15:57.657Z,91.84
2022-10-31T04:18:24.935Z,92.43
2022-10-31T04:21:01.589Z,92.34
2022-10-31T04:23:29.318Z,92.39
2022-10-31T04:25:55.872Z,92.54
2022-10-31T04:28:22.546Z,92.11
2022-10-31T04:30:49.365Z,91.47
2022-10-31T04:33:16.172Z,90.81
2022-10-31T04:35:42.827Z,90.22
2022-10-31T04:38:09.798Z,89.84
2022-10-31T04:40:36.537Z,89.82
2022-10-31T04:43:03.540Z,90.28
2022-10-31T04:45:30.461Z,90.50
2022-10-31T04:47:57.439Z,91.18
2022-10-31T04:50:24.486Z,90.94
2022-10-31T04:52:51.477Z,90.58
2022-10-31T04:55:18.243Z,90.64
2022-10-31T04:57:49.472Z,91.18
2022-10-31T05:00:19.556Z,91.44
2022-10-31T05:02:51.391Z,92.11
2022-10-31T05:05:21.322Z,91.83
2022-10-31T05:07:49.886Z,91.99
2022-10-31T05:10:19.691Z,92.08
2022-10-31T05:12:50.878Z,91.52
2022-10-31T05:15:18.837Z,91.19
2022-10-31T05:17:45.683Z,90.63
2022-10-31T05:20:15.379Z,89.36
2022-10-31T05:22:50.692Z,87.27
2022-10-31T05:25:18.687Z,85.97
2022-10-31T05:27:47.661Z,85.62
2022-10-31T05:30:17.583Z,84.88
2022-10-31T05:32:46.380Z,85.46
2022-10-31T05:35:16.801Z,84.99
2022-10-31T05:37:43.776Z,85.76
2022-10-31T05:40:12.190Z,86.75
2022-10-31T05:42:43.110Z,87.74
2022-10-31T05:45:11.681Z,88.14
2022-10-31T05:47:39.585Z,89.09
2022-10-31T05:50:07.692Z,88.08
2022-10-31T05:52:35.099Z,86.97
2022-10-31T05:55:01.891Z,85.03
2022-10-31T05:57:30.183Z,78.11
2022-10-31T05:59:56.907Z,70.37
2022-10-31T06:02:23.584Z,64.45
2022-10-31T06:04:50.315Z,59.22
2022-10-31T06:07:16.894Z,55.24
2022-10-31T06:09:43.605Z,53.43
2022-10-31T06:12:10.254Z,51.51
2022-10-31T06:14:36.782Z,49.24
2022-10-31T06:17:03.775Z,47.33
2022-10-31T06:19:30.425Z,45.93
2022-10-31T06:21:57.056Z,44.26
2022-10-31T06:24:23.850Z,43.84
2022-10-31T06:26:50.593Z,43.60
2022-10-31T06:29:17.168Z,42.47
2022-10-31T06:31:43.798Z,43.25
2022-10-31T06:34:10.533Z,42.51
2022-10-31T06:36:37.105Z,42.84
2022-10-31T06:39:03.774Z,43.13
2022-10-31T06:41:30.282Z,42.50
2022-10-31T06:43:56.980Z,42.12
2022-10-31T06:46:23.845Z,41.90
2022-10-31T06:48:50.560Z,42.10
2022-10-31T06:51:17.170Z,42.60
2022-10-31T06:53:44.145Z,41.79
2022-10-31T06:56:10.730Z,41.37
2022-10-31T06:58:37.252Z,41.10
2022-10-31T07:01:04.006Z,40.67
2022-10-31T07:03:30.782Z,40.61
2022-10-31T07:05:57.825Z,40.71
2022-10-31T07:08:24.774Z,40.70
2022-10-31T07:10:57.003Z,40.84
2022-10-31T07:13:27.646Z,40.24
2022-10-31T07:15:56.073Z,40.41
2022-10-31T07:18:23.333Z,40.34
2022-10-31T07:20:49.961Z,39.78
2022-10-31T07:23:16.617Z,39.49
2022-10-31T07:25:43.409Z,39.24
2022-10-31T07:28:10.913Z,39.27
2022-10-31T07:30:38.361Z,39.84
2022-10-31T07:33:06.027Z,39.69
2022-10-31T07:35:33.800Z,39.52
2022-10-31T07:38:09.755Z,39.15
2022-10-31T07:40:36.595Z,38.45
2022-10-31T07:43:03.476Z,38.75
2022-10-31T07:45:30.417Z,40.28
2022-10-31T07:47:57.321Z,40.52
2022-10-31T07:50:29.828Z,40.73
2022-10-31T07:53:08.494Z,41.59
2022-10-31T07:55:35.638Z,42.65
2022-10-31T07:58:09.696Z,44.39
2022-10-31T08:00:38.158Z,43.59
2022-10-31T08:03:14.123Z,43.96
2022-10-31T08:05:42.214Z,44.57
2022-10-31T08:08:09.774Z,45.09
2022-10-31T08:10:37.059Z,46.54
2022-10-31T08:13:09.509Z,47.35
2022-10-31T08:15:39.192Z,47.79
2022-10-31T08:18:07.280Z,48.77
2022-10-31T08:20:34.281Z,49.33
2022-10-31T08:23:03.507Z,50.66
2022-10-31T08:25:35.610Z,51.47
2022-10-31T08:28:05.980Z,51.90
2022-10-31T08:30:34.495Z,52.79
2022-10-31T08:33:14.854Z,53.14
2022-10-31T08:35:42.190Z,53.71
2022-10-31T08:38:10.881Z,53.57
2022-10-31T08:40:38.163Z,52.60
2022-10-31T08:43:22.713Z,52.68
2022-10-31T08:45:50.605Z,52.69
2022-10-31T08:48:18.314Z,52.69
2022-10-31T08:50:46.211Z,51.82
2022-10-31T08:53:18.261Z,50.98
2022-10-31T08:55:46.384Z,50.60
2022-10-31T08:58:15.674Z,49.87
2022-10-31T09:00:43.113Z,50.14
2022-10-31T09:03:14.903Z,50.54
2022-10-31T09:05:42.240Z,51.09
2022-10-31T09:08:14.824Z,50.33
2022-10-31T09:10:43.498Z,49.77
2022-10-31T09:13:12.216Z,50.17
2022-10-31T09:15:44.757Z,50.46
2022-10-31T09:18:12.489Z,49.53
2022-10-31T09:20:40.730Z,48.17
2022-10-31T09:23:11.182Z,47.71
2022-10-31T09:25:38.587Z,47.43
2022-10-31T09:28:06.942Z,46.33
2022-10-31T09:30:35.265Z,46.75
2022-10-31T09:33:04.914Z,46.53
2022-10-31T09:35:31.914Z,46.50
2022-10-31T09:38:00.702Z,46.06
2022-10-31T09:40:35.853Z,46.13
2022-10-31T09:43:15.490Z,45.79
2022-10-31T09:45:54.043Z,44.71
2022-10-31T09:48:39.933Z,43.42
2022-10-31T09:51:18.478Z,43.56
2022-10-31T09:53:56.934Z,43.47
2022-10-31T09:56:26.400Z,43.09
2022-10-31T09:58:56.658Z,43.02
2022-10-31T10:01:35.691Z,42.53
2022-10-31T10:04:23.399Z,42.07
2022-10-31T10:06:52.424Z,42.33
2022-10-31T10:09:23.374Z,42.60
2022-10-31T10:12:14.062Z,41.55
2022-10-31T10:15:22.039Z,40.51
2022-10-31T10:18:03.452Z,40.19
2022-10-31T10:20:54.471Z,39.98
2022-10-31T10:23:39.827Z,39.01
2022-10-31T10:26:20.806Z,38.58
2022-10-31T10:28:58.246Z,38.00
2022-10-31T10:31:30.314Z,37.71
2022-10-31T10:34:07.239Z,37.58
2022-10-31T10:36:41.500Z,37.15
2022-10-31T10:39:26.103Z,36.99
2022-10-31T10:42:12.188Z,37.25
2022-10-31T10:45:06.816Z,37.43
2022-10-31T10:47:45.034Z,37.25
2022-10-31T10:50:20.171Z,36.74
2022-10-31T10:53:05.286Z,36.26
2022-10-31T10:55:40.530Z,36.53
2022-10-31T10:58:11.843Z,36.38
2022-10-31T11:00:43.826Z,36.67
2022-10-31T11:03:11.766Z,36.69
2022-10-31T11:05:50.511Z,36.48
2022-10-31T11:08:31.286Z,36.21
2022-10-31T11:11:36.536Z,35.93
2022-10-31T11:14:07.216Z,35.68
2022-10-31T11:16:41.240Z,35.82
2022-10-31T11:19:28.575Z,35.68
2022-10-31T11:21:55.333Z,35.49
2022-10-31T11:24:27.152Z,35.44
2022-10-31T11:27:12.620Z,35.41
2022-10-31T11:29:39.166Z,35.28
2022-10-31T11:32:05.776Z,35.08
2022-10-31T11:34:55.487Z,35.38
2022-10-31T11:37:31.656Z,35.61
2022-10-31T11:40:01.185Z,35.39
2022-10-31T11:42:31.337Z,35.47
2022-10-31T11:44:58.230Z,35.48
2022-10-31T11:47:29.028Z,35.42
2022-10-31T11:49:57.468Z,35.17
2022-10-31T11:52:30.160Z,35.09
2022-10-31T11:55:14.577Z,34.97
2022-10-31T11:57:53.104Z,35.02
2022-10-31T12:00:30.765Z,34.72
2022-10-31T12:03:19.461Z,34.64
2022-10-31T12:05:48.501Z,34.29
2022-10-31T12:08:15.192Z,34.13
2022-10-31T12:11:17.519Z,34.08
2022-10-31T12:14:04.514Z,34.25
2022-10-31T12:16:54.778Z,34.28
2022-10-31T12:20:29.254Z,34.28
2022-10-31T12:23:16.347Z,34.29
2022-10-31T12:25:54.782Z,34.31
2022-10-31T12:29:05.969Z,34.13
2022-10-31T12:31:50.362Z,33.85
2022-10-31T12:34:35.746Z,34.28
2022-10-31T12:37:19.739Z,34.44
2022-10-31T12:40:25.197Z,34.12
2022-10-31T12:43:03.240Z,34.20
2022-10-31T12:45:36.684Z,34.26
2022-10-31T12:48:27.386Z,34.26
2022-10-31T12:51:00.043Z,34.55
2022-10-31T12:53:50.046Z,34.34
2022-10-31T12:56:31.413Z,34.19
2022-10-31T12:59:09.055Z,34.05
2022-10-31T13:01:49.140Z,34.29
2022-10-31T13:04:23.042Z,34.39
2022-10-31T13:06:55.020Z,34.35
2022-10-31T13:09:37.730Z,34.45
2022-10-31T13:12:12.803Z,34.65
2022-10-31T13:14:42.870Z,34.59
2022-10-31T13:17:26.472Z,34.60
2022-10-31T13:20:03.884Z,34.56
2022-10-31T13:22:36.869Z,34.49
2022-10-31T13:25:10.470Z,34.34
2022-10-31T13:27:58.361Z,34.18
2022-10-31T13:30:39.027Z,34.14
2022-10-31T13:33:20.573Z,33.80
2022-10-31T13:35:58.729Z,33.92
2022-10-31T13:38:55.015Z,34.01
2022-10-31T13:41:32.349Z,34.13
2022-10-31T13:44:25.088Z,34.25
2022-10-31T13:46:53.391Z,34.22
2022-10-31T13:49:40.739Z,34.38
2022-10-31T13:52:10.490Z,34.39
2022-10-31T13:54:42.864Z,34.34
2022-10-31T13:57:34.049Z,34.43
2022-10-31T14:00:05.850Z,34.41
2022-10-31T14:02:36.185Z,34.25
2022-10-31T14:05:20.765Z,34.28
2022-10-31T14:07:48.544Z,34.25
2022-10-31T14:10:31.616Z,34.52
2022-10-31T14:13:16.016Z,34.80
2022-10-31T14:15:53.451Z,35.03
2022-10-31T14:18:26.457Z,34.95
2022-10-31T14:20:53.042Z,34.93
2022-10-31T14:23:35.179Z,35.02
2022-10-31T14:26:22.957Z,35.00
2022-10-31T14:28:51.764Z,35.08
2022-10-31T14:31:40.203Z,35.19
2022-10-31T14:34:12.828Z,35.30
2022-10-31T14:36:55.364Z,35.14
2022-10-31T14:39:30.599Z,35.22
2022-10-31T14:42:04.451Z,35.07
2022-10-31T14:44:40.149Z,35.12
2022-10-31T14:47:29.947Z,35.34
2022-10-31T14:50:07.995Z,35.30
2022-10-31T14:52:38.440Z,35.39
2022-10-31T14:55:11.942Z,35.42
2022-10-31T14:57:43.949Z,35.62
2022-10-31T15:00:20.106Z,35.71
2022-10-31T15:03:22.649Z,35.79
2022-10-31T15:05:55.328Z,35.79
2022-10-31T15:08:41.944Z,36.12
2022-10-31T15:11:23.347Z,36.15
2022-10-31T15:13:51.156Z,36.23
2022-10-31T15:16:35.600Z,36.52
2022-10-31T15:19:08.510Z,36.71
2022-10-31T15:21:40.931Z,36.82
2022-10-31T15:24:12.705Z,37.28
2022-10-31T15:26:44.444Z,37.51
2022-10-31T15:29:16.902Z,37.98
2022-10-31T15:31:56.307Z,38.17
2022-10-31T15:34:44.621Z,38.73
2022-10-31T15:37:22.479Z,39.64
2022-10-31T15:39:50.592Z,40.11
2022-10-31T15:42:28.947Z,40.38
2022-10-31T15:45:03.462Z,40.66
2022-10-31T15:47:33.082Z,41.09
2022-10-31T15:50:01.354Z,41.48
2022-10-31T15:52:45.282Z,41.92
2022-10-31T15:55:29.042Z,42.74
2022-10-31T15:58:00.146Z,43.23
2022-10-31T16:00:39.389Z,43.69
2022-10-31T16:03:14.963Z,43.99
2022-10-31T16:05:49.393Z,44.42
2022-10-31T16:08:31.319Z,45.17
2022-10-31T16:11:04.116Z,44.79
2022-10-31T16:13:37.392Z,45.20
2022-10-31T16:19:05.774Z,45.92
2022-10-31T16:21:38.841Z,46.07
2022-10-31T16:24:48.852Z,46.26
2022-10-31T16:27:26.695Z,46.09
2022-10-31T16:29:53.772Z,46.09
2022-10-31T16:32:37.770Z,46.09
2022-10-31T16:35:10.486Z,46.47
2022-10-31T16:37:43.872Z,46.92
2022-10-31T16:40:15.114Z,46.96
2022-10-31T16:42:45.939Z,46.86
2022-10-31T16:45:22.394Z,46.75
2022-10-31T16:47:49.526Z,47.14
2022-10-31T16:50:27.788Z,48.03
2022-10-31T16:53:12.929Z,48.92
2022-10-31T16:55:47.609Z,51.36
2022-10-31T16:58:18.605Z,52.21
2022-10-31T17:00:45.663Z,52.56
2022-10-31T17:03:12.347Z,52.62
2022-10-31T17:05:39.557Z,52.62
2022-10-31T17:08:06.402Z,53.00
2022-10-31T17:10:33.840Z,53.00
2022-10-31T17:13:03.741Z,53.48
2022-10-31T17:15:41.974Z,53.86
2022-10-31T17:18:14.173Z,53.95
2022-10-31T17:20:42.134Z,54.44
2022-10-31T17:23:13.915Z,54.82
2022-10-31T17:25:41.111Z,54.87
2022-10-31T17:28:09.142Z,55.31
2022-10-31T17:30:37.302Z,55.55
2022-10-31T17:33:04.185Z,56.41
2022-10-31T17:35:30.939Z,57.16
2022-10-31T17:37:57.499Z,57.98
2022-10-31T17:40:24.025Z,58.09
2022-10-31T17:42:57.483Z,58.60
2022-10-31T17:45:26.632Z,58.79
2022-10-31T17:47:54.246Z,59.91
2022-10-31T17:50:22.996Z,61.87
2022-10-31T17:52:50.166Z,61.49
2022-10-31T17:55:17.346Z,61.31
2022-10-31T17:57:44.810Z,61.34
2022-10-31T18:00:14.309Z,61.50
2022-10-31T18:02:40.985Z,61.53
2022-10-31T18:05:08.785Z,61.45
2022-10-31T18:07:35.918Z,62.03
2022-10-31T18:10:02.674Z,62.66
2022-10-31T18:12:32.565Z,63.13
2022-10-31T18:14:59.147Z,63.39
2022-10-31T18:17:26.048Z,63.48
2022-10-31T18:19:52.689Z,63.48
2022-10-31T18:22:19.273Z,63.89
2022-10-31T18:24:45.911Z,64.62
2022-10-31T18:27:12.521Z,64.67
2022-10-31T18:29:39.106Z,64.84
2022-10-31T18:32:09.506Z,64.89
2022-10-31T18:34:36.453Z,65.47
2022-10-31T18:37:03.369Z,66.07
2022-10-31T18:39:30.057Z,67.01
2022-10-31T18:41:56.776Z,67.13
2022-10-31T18:44:23.419Z,67.22
2022-10-31T18:46:50.206Z,66.93
2022-10-31T18:49:22.747Z,66.75
2022-10-31T18:51:52.481Z,66.97
2022-10-31T18:54:19.433Z,66.84
2022-10-31T18:56:46.113Z,67.03
2022-10-31T18:59:13.352Z,67.50
2022-10-31T19:01:40.555Z,67.78
2022-10-31T19:04:07.701Z,68.50
2022-10-31T19:06:34.395Z,68.79
2022-10-31T19:09:05.242Z,69.36
2022-10-31T19:11:33.753Z,69.24
2022-10-31T19:14:00.533Z,69.57
2022-10-31T19:16:27.951Z,69.25
2022-10-31T19:18:56.191Z,69.74
2022-10-31T19:21:23.570Z,70.05
2022-10-31T19:23:53.066Z,70.65
2022-10-31T19:26:20.022Z,71.71
2022-10-31T19:28:46.732Z,72.16
2022-10-31T19:31:13.482Z,72.49
2022-10-31T19:33:40.066Z,72.58
2022-10-31T19:36:15.619Z,72.87
2022-10-31T19:38:44.291Z,72.96
2022-10-31T19:41:17.509Z,72.77
2022-10-31T19:43:44.421Z,72.81
2022-10-31T19:46:22.193Z,72.96
2022-10-31T19:48:55.189Z,73.97
2022-10-31T19:51:22.256Z,74.26
2022-10-31T19:53:52.239Z,74.73
2022-10-31T19:56:24.220Z,75.36
2022-10-31T19:58:50.836Z,75.75
2022-10-31T20:01:19.860Z,76.61
2022-10-31T20:03:47.754Z,77.29
2022-10-31T20:06:22.522Z,78.20
2022-10-31T20:08:49.290Z,78.42
2022-10-31T20:11:16.354Z,79.47
2022-10-31T20:13:43.212Z,80.25
2022-10-31T20:16:12.048Z,80.58
2022-10-31T20:18:39.002Z,81.11
2022-10-31T20:21:14.614Z,81.03
2022-10-31T20:23:41.462Z,82.59
2022-10-31T20:26:14.133Z,83.09
2022-10-31T20:28:43.331Z,84.08
2022-10-31T20:31:14.537Z,84.92
2022-10-31T20:33:41.427Z,85.64
2022-10-31T20:36:08.852Z,85.78
2022-10-31T20:38:39.098Z,86.17
2022-10-31T20:41:07.589Z,86.44
2022-10-31T20:43:34.859Z,86.62
2022-10-31T20:46:03.963Z,86.30
2022-10-31T20:48:31.116Z,86.48
2022-10-31T20:50:59.849Z,86.27
2022-10-31T20:53:26.829Z,86.54
2022-10-31T20:56:07.215Z,86.78
2022-10-31T20:58:36.081Z,86.58
2022-10-31T21:01:03.868Z,86.99
2022-10-31T21:03:30.808Z,87.43
2022-10-31T21:06:01.571Z,87.62
2022-10-31T21:08:31.024Z,87.75
2022-10-31T21:10:59.073Z,87.58
2022-10-31T21:13:26.401Z,87.61
2022-10-31T21:16:00.969Z,87.76
2022-10-31T21:18:27.939Z,88.06
2022-10-31T21:20:54.890Z,88.27
2022-10-31T21:23:21.542Z,88.76
2022-10-31T21:25:48.228Z,89.00
2022-10-31T21:28:14.861Z,89.08
2022-10-31T21:30:46.486Z,90.14
2022-10-31T21:33:13.521Z,90.00
2022-10-31T21:35:40.084Z,90.75
2022-10-31T21:38:06.857Z,91.43
2022-10-31T21:40:33.686Z,92.73
2022-10-31T21:43:00.471Z,93.44
2022-10-31T21:45:27.366Z,93.92
2022-10-31T21:47:53.926Z,94.04
2022-10-31T21:50:20.645Z,94.14
2022-10-31T21:52:47.217Z,94.53
2022-10-31T21:55:13.738Z,94.68
2022-10-31T21:57:40.287Z,94.58
2022-10-31T22:00:09.073Z,95.13
2022-10-31T22:02:36.384Z,95.23
2022-10-31T22:05:03.370Z,95.66
2022-10-31T22:07:32.283Z,96.84
2022-10-31T22:09:58.894Z,98.16
2022-10-31T22:12:25.513Z,98.03
2022-10-31T22:14:52.086Z,100.00
2022-10-31T22:17:19.162Z,100.00
2022-10-31T22:19:45.679Z,100.00
2022-10-31T22:22:13.111Z,100.00
2022-10-31T22:24:40.037Z,100.00
2022-10-31T22:27:06.706Z,100.00
2022-10-31T22:29:35.074Z,100.00
2022-10-31T22:32:03.081Z,100.00
2022-10-31T22:34:29.758Z,100.00
2022-10-31T22:36:56.584Z,100.00
2022-10-31T22:39:23.275Z,100.00
2022-10-31T22:41:49.958Z,100.00
2022-10-31T22:44:16.517Z,100.00
2022-10-31T22:46:43.209Z,100.00
2022-10-31T22:49:14.768Z,100.00
2022-10-31T22:51:43.081Z,100.00
2022-10-31T22:54:13.626Z,100.00
2022-10-31T22:56:40.325Z,100.00
2022-10-31T22:59:06.984Z,100.00
2022-10-31T23:01:34.535Z,100.00
2022-10-31T23:04:01.549Z,100.00
2022-10-31T23:06:32.628Z,100.00
2022-10-31T23:09:01.348Z,100.00
2022-10-31T23:11:48.118Z,100.00
2022-10-31T23:14:20.636Z,100.00
2022-10-31T23:16:56.518Z,100.00
2022-10-31T23:19:26.423Z,100.00
2022-10-31T23:21:56.421Z,100.00
2022-10-31T23:24:37.970Z,100.00
2022-10-31T23:27:15.110Z,100.00
2022-10-31T23:29:43.847Z,100.00
2022-10-31T23:32:35.448Z,100.00
2022-10-31T23:35:07.465Z,100.00
2022-10-31T23:37:36.576Z,100.00
2022-10-31T23:40:03.364Z,100.00
2022-10-31T23:42:29.959Z,100.00
2022-10-31T23:44:56.766Z,100.00
2022-10-31T23:47:23.756Z,100.00
2022-10-31T23:49:50.872Z,100.00
2022-10-31T23:52:18.073Z,100.00
2022-10-31T23:54:44.735Z,100.00
2022-10-31T23:57:12.906Z,100.00
2022-10-31T23:59:39.468Z,100.00
